sensor_id;sensor_type;location;lat;lon;timestamp;P1;durP1;ratioP1;P2;durP2;ratioP2
60653;SDS011;46476;53.614;10.048;2022-10-17T00:00:43;5.55;;;2.20;;
60653;SDS011;46476;53.614;10.048;2022-10-17T00:03:14;5.05;;;1.75;;
60653;SDS011;46476;53.614;10.048;2022-10-17T00:05:49;7.45;;;2.20;;
60653;SDS011;46476;53.614;10.048;2022-10-17T00:08:15;4.15;;;2.10;;
60653;SDS011;46476;53.614;10.048;2022-10-17T00:10:42;3.88;;;1.90;;
60653;SDS011;46476;53.614;10.048;2022-10-17T00:13:13;3.50;;;1.85;;
60653;SDS011;46476;53.614;10.048;2022-10-17T00:16:05;3.67;;;1.50;;
60653;SDS011;46476;53.614;10.048;2022-10-17T00:18:33;4.53;;;1.80;;
60653;SDS011;46476;53.614;10.048;2022-10-17T00:21:00;5.65;;;1.60;;
60653;SDS011;46476;53.614;10.048;2022-10-17T00:24:23;4.13;;;1.95;;
60653;SDS011;46476;53.614;10.048;2022-10-17T00:27:34;4.05;;;1.60;;
60653;SDS011;46476;53.614;10.048;2022-10-17T00:30:41;4.30;;;1.88;;
60653;SDS011;46476;53.614;10.048;2022-10-17T00:33:29;3.88;;;1.80;;
60653;SDS011;46476;53.614;10.048;2022-10-17T00:36:29;5.93;;;2.08;;
60653;SDS011;46476;53.614;10.048;2022-10-17T00:39:17;3.38;;;1.65;;
60653;SDS011;46476;53.614;10.048;2022-10-17T00:42:27;3.80;;;1.65;;
60653;SDS011;46476;53.614;10.048;2022-10-17T00:55:40;3.53;;;1.30;;
60653;SDS011;46476;53.614;10.048;2022-10-17T00:58:44;5.55;;;1.77;;
60653;SDS011;46476;53.614;10.048;2022-10-17T01:05:52;6.65;;;2.25;;
60653;SDS011;46476;53.614;10.048;2022-10-17T01:08:43;2.80;;;1.67;;
60653;SDS011;46476;53.614;10.048;2022-10-17T01:35:19;3.55;;;1.50;;
60653;SDS011;46476;53.614;10.048;2022-10-17T01:49:47;2.55;;;1.63;;
60653;SDS011;46476;53.614;10.048;2022-10-17T01:52:54;4.80;;;1.48;;
60653;SDS011;46476;53.614;10.048;2022-10-17T01:55:46;4.43;;;1.40;;
60653;SDS011;46476;53.614;10.048;2022-10-17T01:58:19;3.60;;;1.65;;
60653;SDS011;46476;53.614;10.048;2022-10-17T02:00:48;4.05;;;1.60;;
60653;SDS011;46476;53.614;10.048;2022-10-17T02:03:17;4.72;;;1.50;;
60653;SDS011;46476;53.614;10.048;2022-10-17T02:05:50;2.20;;;1.30;;
60653;SDS011;46476;53.614;10.048;2022-10-17T02:08:38;2.45;;;1.33;;
60653;SDS011;46476;53.614;10.048;2022-10-17T02:11:25;2.92;;;1.42;;
60653;SDS011;46476;53.614;10.048;2022-10-17T02:20:36;2.28;;;1.23;;
60653;SDS011;46476;53.614;10.048;2022-10-17T02:23:26;2.35;;;1.15;;
60653;SDS011;46476;53.614;10.048;2022-10-17T02:26:05;4.13;;;1.60;;
60653;SDS011;46476;53.614;10.048;2022-10-17T02:31:57;2.90;;;1.17;;
60653;SDS011;46476;53.614;10.048;2022-10-17T02:34:32;2.22;;;1.30;;
60653;SDS011;46476;53.614;10.048;2022-10-17T02:37:06;1.88;;;1.40;;
60653;SDS011;46476;53.614;10.048;2022-10-17T02:40:19;3.53;;;1.20;;
60653;SDS011;46476;53.614;10.048;2022-10-17T02:42:48;1.85;;;1.38;;
60653;SDS011;46476;53.614;10.048;2022-10-17T02:45:42;4.70;;;1.50;;
60653;SDS011;46476;53.614;10.048;2022-10-17T02:52:26;2.78;;;1.23;;
60653;SDS011;46476;53.614;10.048;2022-10-17T02:55:13;2.85;;;1.35;;
60653;SDS011;46476;53.614;10.048;2022-10-17T02:58:24;1.63;;;1.02;;
60653;SDS011;46476;53.614;10.048;2022-10-17T03:00:55;1.98;;;1.05;;
60653;SDS011;46476;53.614;10.048;2022-10-17T03:03:23;3.58;;;1.25;;
60653;SDS011;46476;53.614;10.048;2022-10-17T03:05:52;3.03;;;1.20;;
60653;SDS011;46476;53.614;10.048;2022-10-17T03:08:19;3.53;;;1.33;;
60653;SDS011;46476;53.614;10.048;2022-10-17T03:10:45;3.95;;;1.42;;
60653;SDS011;46476;53.614;10.048;2022-10-17T03:13:35;2.97;;;1.40;;
60653;SDS011;46476;53.614;10.048;2022-10-17T03:16:01;3.28;;;1.50;;
60653;SDS011;46476;53.614;10.048;2022-10-17T03:18:31;3.22;;;1.25;;
60653;SDS011;46476;53.614;10.048;2022-10-17T03:20:58;1.58;;;1.05;;
60653;SDS011;46476;53.614;10.048;2022-10-17T03:23:39;2.22;;;1.30;;
60653;SDS011;46476;53.614;10.048;2022-10-17T03:26:06;4.20;;;1.38;;
60653;SDS011;46476;53.614;10.048;2022-10-17T03:28:32;1.90;;;1.17;;
60653;SDS011;46476;53.614;10.048;2022-10-17T03:30:58;3.03;;;1.08;;
60653;SDS011;46476;53.614;10.048;2022-10-17T03:33:25;1.83;;;1.30;;
60653;SDS011;46476;53.614;10.048;2022-10-17T03:35:51;1.35;;;0.88;;
60653;SDS011;46476;53.614;10.048;2022-10-17T03:38:18;4.05;;;1.13;;
60653;SDS011;46476;53.614;10.048;2022-10-17T03:40:44;1.92;;;1.00;;
60653;SDS011;46476;53.614;10.048;2022-10-17T03:43:19;2.25;;;1.17;;
60653;SDS011;46476;53.614;10.048;2022-10-17T03:45:50;1.10;;;0.90;;
60653;SDS011;46476;53.614;10.048;2022-10-17T03:48:36;2.35;;;1.20;;
60653;SDS011;46476;53.614;10.048;2022-10-17T03:51:03;2.33;;;1.20;;
60653;SDS011;46476;53.614;10.048;2022-10-17T03:53:39;3.22;;;0.98;;
60653;SDS011;46476;53.614;10.048;2022-10-17T03:56:16;1.77;;;1.33;;
60653;SDS011;46476;53.614;10.048;2022-10-17T03:58:44;2.42;;;1.13;;
60653;SDS011;46476;53.614;10.048;2022-10-17T04:01:10;3.83;;;1.10;;
60653;SDS011;46476;53.614;10.048;2022-10-17T04:03:43;1.38;;;1.10;;
60653;SDS011;46476;53.614;10.048;2022-10-17T04:06:20;1.90;;;1.00;;
60653;SDS011;46476;53.614;10.048;2022-10-17T04:08:46;1.85;;;1.00;;
60653;SDS011;46476;53.614;10.048;2022-10-17T04:11:16;3.83;;;1.45;;
60653;SDS011;46476;53.614;10.048;2022-10-17T04:13:46;1.23;;;1.00;;
60653;SDS011;46476;53.614;10.048;2022-10-17T04:16:40;2.05;;;0.80;;
60653;SDS011;46476;53.614;10.048;2022-10-17T04:19:06;3.03;;;0.82;;
60653;SDS011;46476;53.614;10.048;2022-10-17T04:21:45;2.50;;;0.90;;
60653;SDS011;46476;53.614;10.048;2022-10-17T04:24:15;1.10;;;1.00;;
60653;SDS011;46476;53.614;10.048;2022-10-17T04:26:49;3.10;;;1.05;;
60653;SDS011;46476;53.614;10.048;2022-10-17T04:29:39;2.20;;;1.15;;
60653;SDS011;46476;53.614;10.048;2022-10-17T04:32:06;1.20;;;0.93;;
60653;SDS011;46476;53.614;10.048;2022-10-17T04:34:31;1.65;;;1.00;;
60653;SDS011;46476;53.614;10.048;2022-10-17T04:36:57;1.50;;;1.08;;
60653;SDS011;46476;53.614;10.048;2022-10-17T04:39:47;2.15;;;1.10;;
60653;SDS011;46476;53.614;10.048;2022-10-17T04:42:41;5.13;;;1.00;;
60653;SDS011;46476;53.614;10.048;2022-10-17T04:45:13;1.35;;;1.00;;
60653;SDS011;46476;53.614;10.048;2022-10-17T04:47:40;1.33;;;1.02;;
60653;SDS011;46476;53.614;10.048;2022-10-17T04:50:07;2.78;;;1.23;;
60653;SDS011;46476;53.614;10.048;2022-10-17T04:52:33;1.30;;;1.08;;
60653;SDS011;46476;53.614;10.048;2022-10-17T04:55:02;3.42;;;1.10;;
60653;SDS011;46476;53.614;10.048;2022-10-17T04:57:35;1.38;;;1.23;;
60653;SDS011;46476;53.614;10.048;2022-10-17T05:00:14;1.73;;;1.05;;
60653;SDS011;46476;53.614;10.048;2022-10-17T05:03:25;2.35;;;1.10;;
60653;SDS011;46476;53.614;10.048;2022-10-17T05:09:55;1.85;;;1.20;;
60653;SDS011;46476;53.614;10.048;2022-10-17T05:16:24;2.63;;;1.08;;
60653;SDS011;46476;53.614;10.048;2022-10-17T05:19:53;1.35;;;1.20;;
60653;SDS011;46476;53.614;10.048;2022-10-17T05:22:18;2.53;;;1.05;;
60653;SDS011;46476;53.614;10.048;2022-10-17T05:24:43;2.70;;;1.25;;
60653;SDS011;46476;53.614;10.048;2022-10-17T05:27:09;2.97;;;1.02;;
60653;SDS011;46476;53.614;10.048;2022-10-17T05:29:34;2.30;;;1.00;;
60653;SDS011;46476;53.614;10.048;2022-10-17T05:31:59;2.40;;;1.10;;
60653;SDS011;46476;53.614;10.048;2022-10-17T05:34:24;3.97;;;1.30;;
60653;SDS011;46476;53.614;10.048;2022-10-17T05:36:50;1.63;;;1.30;;
60653;SDS011;46476;53.614;10.048;2022-10-17T05:39:15;3.95;;;1.33;;
60653;SDS011;46476;53.614;10.048;2022-10-17T05:41:43;2.78;;;1.20;;
60653;SDS011;46476;53.614;10.048;2022-10-17T05:44:10;2.25;;;1.35;;
60653;SDS011;46476;53.614;10.048;2022-10-17T05:46:37;2.25;;;1.05;;
60653;SDS011;46476;53.614;10.048;2022-10-17T05:49:03;2.13;;;1.20;;
60653;SDS011;46476;53.614;10.048;2022-10-17T05:51:28;1.45;;;1.35;;
60653;SDS011;46476;53.614;10.048;2022-10-17T05:53:53;2.38;;;1.40;;
60653;SDS011;46476;53.614;10.048;2022-10-17T05:56:18;3.20;;;1.50;;
60653;SDS011;46476;53.614;10.048;2022-10-17T05:58:44;1.88;;;1.42;;
60653;SDS011;46476;53.614;10.048;2022-10-17T06:01:09;4.90;;;1.50;;
60653;SDS011;46476;53.614;10.048;2022-10-17T06:03:36;1.33;;;1.23;;
60653;SDS011;46476;53.614;10.048;2022-10-17T06:06:05;4.25;;;1.25;;
60653;SDS011;46476;53.614;10.048;2022-10-17T06:08:32;1.80;;;1.20;;
60653;SDS011;46476;53.614;10.048;2022-10-17T06:10:58;3.17;;;1.40;;
60653;SDS011;46476;53.614;10.048;2022-10-17T06:13:24;4.32;;;1.40;;
60653;SDS011;46476;53.614;10.048;2022-10-17T06:15:49;1.95;;;1.40;;
60653;SDS011;46476;53.614;10.048;2022-10-17T06:18:14;3.17;;;1.42;;
60653;SDS011;46476;53.614;10.048;2022-10-17T06:20:40;5.10;;;1.60;;
60653;SDS011;46476;53.614;10.048;2022-10-17T06:23:05;3.35;;;1.27;;
60653;SDS011;46476;53.614;10.048;2022-10-17T06:25:31;2.47;;;1.40;;
60653;SDS011;46476;53.614;10.048;2022-10-17T06:27:57;2.47;;;1.50;;
60653;SDS011;46476;53.614;10.048;2022-10-17T06:30:23;1.88;;;1.40;;
60653;SDS011;46476;53.614;10.048;2022-10-17T06:32:48;5.45;;;2.10;;
60653;SDS011;46476;53.614;10.048;2022-10-17T06:35:14;5.10;;;2.45;;
60653;SDS011;46476;53.614;10.048;2022-10-17T06:37:39;4.38;;;2.22;;
60653;SDS011;46476;53.614;10.048;2022-10-17T06:40:05;3.55;;;1.75;;
60653;SDS011;46476;53.614;10.048;2022-10-17T06:42:33;2.63;;;1.67;;
60653;SDS011;46476;53.614;10.048;2022-10-17T06:44:58;3.45;;;1.70;;
60653;SDS011;46476;53.614;10.048;2022-10-17T06:47:23;4.15;;;1.65;;
60653;SDS011;46476;53.614;10.048;2022-10-17T06:49:49;2.58;;;1.60;;
60653;SDS011;46476;53.614;10.048;2022-10-17T06:52:14;2.10;;;1.45;;
60653;SDS011;46476;53.614;10.048;2022-10-17T06:54:41;3.00;;;1.63;;
60653;SDS011;46476;53.614;10.048;2022-10-17T06:57:07;1.92;;;1.58;;
60653;SDS011;46476;53.614;10.048;2022-10-17T06:59:32;2.60;;;1.45;;
60653;SDS011;46476;53.614;10.048;2022-10-17T07:01:59;1.92;;;1.23;;
60653;SDS011;46476;53.614;10.048;2022-10-17T07:04:24;4.10;;;1.40;;
60653;SDS011;46476;53.614;10.048;2022-10-17T07:06:50;2.22;;;1.20;;
60653;SDS011;46476;53.614;10.048;2022-10-17T07:09:15;3.70;;;1.33;;
60653;SDS011;46476;53.614;10.048;2022-10-17T07:11:41;3.17;;;1.40;;
60653;SDS011;46476;53.614;10.048;2022-10-17T07:14:06;3.00;;;1.63;;
60653;SDS011;46476;53.614;10.048;2022-10-17T07:16:31;2.55;;;1.60;;
60653;SDS011;46476;53.614;10.048;2022-10-17T07:18:57;2.50;;;1.80;;
60653;SDS011;46476;53.614;10.048;2022-10-17T07:21:22;2.22;;;1.27;;
60653;SDS011;46476;53.614;10.048;2022-10-17T07:23:49;2.13;;;1.33;;
60653;SDS011;46476;53.614;10.048;2022-10-17T07:26:14;5.35;;;1.60;;
60653;SDS011;46476;53.614;10.048;2022-10-17T07:28:42;1.70;;;1.60;;
60653;SDS011;46476;53.614;10.048;2022-10-17T07:31:10;2.38;;;1.25;;
60653;SDS011;46476;53.614;10.048;2022-10-17T07:33:37;2.80;;;1.48;;
60653;SDS011;46476;53.614;10.048;2022-10-17T07:36:03;2.47;;;1.60;;
60653;SDS011;46476;53.614;10.048;2022-10-17T07:38:30;2.58;;;1.52;;
60653;SDS011;46476;53.614;10.048;2022-10-17T07:40:56;2.15;;;1.40;;
60653;SDS011;46476;53.614;10.048;2022-10-17T07:43:23;2.45;;;1.38;;
60653;SDS011;46476;53.614;10.048;2022-10-17T07:45:50;2.22;;;1.38;;
60653;SDS011;46476;53.614;10.048;2022-10-17T07:48:16;1.67;;;1.30;;
60653;SDS011;46476;53.614;10.048;2022-10-17T07:50:42;3.40;;;1.48;;
60653;SDS011;46476;53.614;10.048;2022-10-17T07:53:09;2.58;;;1.50;;
60653;SDS011;46476;53.614;10.048;2022-10-17T07:55:38;2.38;;;1.60;;
60653;SDS011;46476;53.614;10.048;2022-10-17T07:58:04;1.90;;;1.40;;
60653;SDS011;46476;53.614;10.048;2022-10-17T08:00:32;1.92;;;1.42;;
60653;SDS011;46476;53.614;10.048;2022-10-17T08:02:57;3.15;;;1.70;;
60653;SDS011;46476;53.614;10.048;2022-10-17T08:05:24;6.43;;;1.50;;
60653;SDS011;46476;53.614;10.048;2022-10-17T08:07:50;2.45;;;1.65;;
60653;SDS011;46476;53.614;10.048;2022-10-17T08:10:15;3.97;;;1.45;;
60653;SDS011;46476;53.614;10.048;2022-10-17T08:12:41;4.15;;;1.50;;
60653;SDS011;46476;53.614;10.048;2022-10-17T08:15:07;3.35;;;1.50;;
60653;SDS011;46476;53.614;10.048;2022-10-17T08:17:34;2.58;;;1.60;;
60653;SDS011;46476;53.614;10.048;2022-10-17T08:20:02;3.78;;;1.80;;
60653;SDS011;46476;53.614;10.048;2022-10-17T08:22:28;2.25;;;1.70;;
60653;SDS011;46476;53.614;10.048;2022-10-17T08:24:55;2.10;;;1.35;;
60653;SDS011;46476;53.614;10.048;2022-10-17T08:27:22;3.85;;;1.80;;
60653;SDS011;46476;53.614;10.048;2022-10-17T08:29:51;4.32;;;1.70;;
60653;SDS011;46476;53.614;10.048;2022-10-17T08:32:21;2.53;;;1.50;;
60653;SDS011;46476;53.614;10.048;2022-10-17T08:34:49;3.33;;;1.50;;
60653;SDS011;46476;53.614;10.048;2022-10-17T08:37:16;2.13;;;1.15;;
60653;SDS011;46476;53.614;10.048;2022-10-17T08:39:43;1.75;;;1.40;;
60653;SDS011;46476;53.614;10.048;2022-10-17T08:42:20;2.22;;;1.70;;
60653;SDS011;46476;53.614;10.048;2022-10-17T08:48:00;4.65;;;2.25;;
60653;SDS011;46476;53.614;10.048;2022-10-17T08:55:35;2.58;;;1.80;;
60653;SDS011;46476;53.614;10.048;2022-10-17T08:58:40;3.60;;;1.60;;
60653;SDS011;46476;53.614;10.048;2022-10-17T09:07:08;2.05;;;1.52;;
60653;SDS011;46476;53.614;10.048;2022-10-17T09:12:17;6.32;;;2.20;;
60653;SDS011;46476;53.614;10.048;2022-10-17T09:17:28;4.72;;;1.70;;
60653;SDS011;46476;53.614;10.048;2022-10-17T09:20:16;2.63;;;1.90;;
60653;SDS011;46476;53.614;10.048;2022-10-17T09:25:22;3.47;;;1.92;;
60653;SDS011;46476;53.614;10.048;2022-10-17T09:27:50;4.53;;;2.30;;
60653;SDS011;46476;53.614;10.048;2022-10-17T09:33:36;4.45;;;2.00;;
60653;SDS011;46476;53.614;10.048;2022-10-17T09:36:10;2.83;;;1.60;;
60653;SDS011;46476;53.614;10.048;2022-10-17T09:38:44;4.63;;;1.75;;
60653;SDS011;46476;53.614;10.048;2022-10-17T09:41:20;4.10;;;1.83;;
60653;SDS011;46476;53.614;10.048;2022-10-17T09:43:50;3.67;;;1.77;;
60653;SDS011;46476;53.614;10.048;2022-10-17T09:46:29;2.83;;;2.35;;
60653;SDS011;46476;53.614;10.048;2022-10-17T09:49:11;8.10;;;3.22;;
60653;SDS011;46476;53.614;10.048;2022-10-17T09:51:41;3.40;;;2.17;;
60653;SDS011;46476;53.614;10.048;2022-10-17T09:54:19;2.53;;;2.00;;
60653;SDS011;46476;53.614;10.048;2022-10-17T09:57:11;3.00;;;1.60;;
60653;SDS011;46476;53.614;10.048;2022-10-17T09:59:43;3.83;;;1.60;;
60653;SDS011;46476;53.614;10.048;2022-10-17T10:04:42;3.90;;;1.65;;
60653;SDS011;46476;53.614;10.048;2022-10-17T10:07:20;3.30;;;1.70;;
60653;SDS011;46476;53.614;10.048;2022-10-17T10:09:47;5.70;;;1.88;;
60653;SDS011;46476;53.614;10.048;2022-10-17T10:12:18;2.35;;;1.75;;
60653;SDS011;46476;53.614;10.048;2022-10-17T10:14:47;4.47;;;1.52;;
60653;SDS011;46476;53.614;10.048;2022-10-17T10:17:50;5.10;;;1.60;;
60653;SDS011;46476;53.614;10.048;2022-10-17T10:20:24;5.00;;;1.25;;
60653;SDS011;46476;53.614;10.048;2022-10-17T10:23:11;3.15;;;1.20;;
60653;SDS011;46476;53.614;10.048;2022-10-17T10:25:41;2.35;;;1.25;;
60653;SDS011;46476;53.614;10.048;2022-10-17T10:28:14;8.40;;;1.60;;
60653;SDS011;46476;53.614;10.048;2022-10-17T10:30:43;2.65;;;1.55;;
60653;SDS011;46476;53.614;10.048;2022-10-17T10:33:12;1.85;;;1.20;;
60653;SDS011;46476;53.614;10.048;2022-10-17T10:35:37;2.53;;;1.25;;
60653;SDS011;46476;53.614;10.048;2022-10-17T10:38:07;1.75;;;1.40;;
60653;SDS011;46476;53.614;10.048;2022-10-17T10:40:44;3.42;;;1.55;;
60653;SDS011;46476;53.614;10.048;2022-10-17T10:49:01;3.95;;;1.60;;
60653;SDS011;46476;53.614;10.048;2022-10-17T10:51:43;1.58;;;1.13;;
60653;SDS011;46476;53.614;10.048;2022-10-17T10:54:13;2.65;;;1.20;;
60653;SDS011;46476;53.614;10.048;2022-10-17T10:56:51;2.05;;;1.33;;
60653;SDS011;46476;53.614;10.048;2022-10-17T11:07:29;4.97;;;2.05;;
60653;SDS011;46476;53.614;10.048;2022-10-17T11:13:02;4.53;;;1.90;;
60653;SDS011;46476;53.614;10.048;2022-10-17T11:15:35;3.45;;;1.65;;
60653;SDS011;46476;53.614;10.048;2022-10-17T11:18:13;4.53;;;1.75;;
60653;SDS011;46476;53.614;10.048;2022-10-17T11:23:53;4.53;;;2.05;;
60653;SDS011;46476;53.614;10.048;2022-10-17T11:26:27;4.53;;;1.77;;
60653;SDS011;46476;53.614;10.048;2022-10-17T11:28:57;5.20;;;1.90;;
60653;SDS011;46476;53.614;10.048;2022-10-17T11:31:26;3.13;;;1.70;;
60653;SDS011;46476;53.614;10.048;2022-10-17T11:33:56;2.58;;;1.95;;
60653;SDS011;46476;53.614;10.048;2022-10-17T11:36:29;3.35;;;1.90;;
60653;SDS011;46476;53.614;10.048;2022-10-17T11:39:12;2.78;;;2.20;;
60653;SDS011;46476;53.614;10.048;2022-10-17T11:41:44;4.80;;;2.50;;
60653;SDS011;46476;53.614;10.048;2022-10-17T11:47:17;3.87;;;1.87;;
60653;SDS011;46476;53.614;10.048;2022-10-17T11:50:00;3.95;;;1.95;;
60653;SDS011;46476;53.614;10.048;2022-10-17T11:55:13;4.55;;;2.60;;
60653;SDS011;46476;53.614;10.048;2022-10-17T12:08:47;4.68;;;2.10;;
60653;SDS011;46476;53.614;10.048;2022-10-17T12:11:27;6.20;;;2.10;;
60653;SDS011;46476;53.614;10.048;2022-10-17T12:19:49;3.63;;;2.05;;
60653;SDS011;46476;53.614;10.048;2022-10-17T12:22:19;5.28;;;2.42;;
60653;SDS011;46476;53.614;10.048;2022-10-17T12:24:54;5.70;;;2.50;;
60653;SDS011;46476;53.614;10.048;2022-10-17T12:27:34;4.47;;;2.58;;
60653;SDS011;46476;53.614;10.048;2022-10-17T12:32:36;4.10;;;2.40;;
60653;SDS011;46476;53.614;10.048;2022-10-17T12:35:21;3.35;;;2.40;;
60653;SDS011;46476;53.614;10.048;2022-10-17T12:45:54;5.70;;;2.38;;
60653;SDS011;46476;53.614;10.048;2022-10-17T12:51:03;3.72;;;2.53;;
60653;SDS011;46476;53.614;10.048;2022-10-17T12:56:10;3.22;;;2.60;;
60653;SDS011;46476;53.614;10.048;2022-10-17T12:58:36;4.80;;;3.15;;
60653;SDS011;46476;53.614;10.048;2022-10-17T13:01:13;4.05;;;2.75;;
60653;SDS011;46476;53.614;10.048;2022-10-17T13:03:49;4.40;;;2.63;;
60653;SDS011;46476;53.614;10.048;2022-10-17T13:06:23;4.30;;;2.90;;
60653;SDS011;46476;53.614;10.048;2022-10-17T13:08:56;6.28;;;2.70;;
60653;SDS011;46476;53.614;10.048;2022-10-17T13:11:24;6.53;;;3.00;;
60653;SDS011;46476;53.614;10.048;2022-10-17T13:13:55;5.57;;;2.88;;
60653;SDS011;46476;53.614;10.048;2022-10-17T13:16:30;3.13;;;2.70;;
60653;SDS011;46476;53.614;10.048;2022-10-17T13:18:56;4.43;;;3.05;;
60653;SDS011;46476;53.614;10.048;2022-10-17T13:21:21;6.57;;;2.97;;
60653;SDS011;46476;53.614;10.048;2022-10-17T13:23:47;5.05;;;2.85;;
60653;SDS011;46476;53.614;10.048;2022-10-17T13:26:16;4.68;;;2.55;;
60653;SDS011;46476;53.614;10.048;2022-10-17T13:29:05;3.50;;;2.53;;
60653;SDS011;46476;53.614;10.048;2022-10-17T13:31:41;5.40;;;2.83;;
60653;SDS011;46476;53.614;10.048;2022-10-17T13:34:18;4.93;;;3.15;;
60653;SDS011;46476;53.614;10.048;2022-10-17T13:36:49;3.75;;;2.78;;
60653;SDS011;46476;53.614;10.048;2022-10-17T13:39:19;4.18;;;2.63;;
60653;SDS011;46476;53.614;10.048;2022-10-17T13:41:46;4.45;;;3.20;;
60653;SDS011;46476;53.614;10.048;2022-10-17T13:44:22;4.35;;;2.95;;
60653;SDS011;46476;53.614;10.048;2022-10-17T13:46:49;5.90;;;2.67;;
60653;SDS011;46476;53.614;10.048;2022-10-17T13:51:54;5.00;;;2.90;;
60653;SDS011;46476;53.614;10.048;2022-10-17T13:54:40;4.28;;;2.67;;
60653;SDS011;46476;53.614;10.048;2022-10-17T13:57:17;3.67;;;3.03;;
60653;SDS011;46476;53.614;10.048;2022-10-17T13:59:43;4.55;;;2.90;;
60653;SDS011;46476;53.614;10.048;2022-10-17T14:02:22;7.00;;;3.28;;
60653;SDS011;46476;53.614;10.048;2022-10-17T14:10:18;5.18;;;3.25;;
60653;SDS011;46476;53.614;10.048;2022-10-17T14:12:54;4.32;;;3.13;;
60653;SDS011;46476;53.614;10.048;2022-10-17T14:15:21;4.72;;;3.22;;
60653;SDS011;46476;53.614;10.048;2022-10-17T14:17:53;3.42;;;2.97;;
60653;SDS011;46476;53.614;10.048;2022-10-17T14:20:23;4.85;;;3.35;;
60653;SDS011;46476;53.614;10.048;2022-10-17T14:22:50;6.35;;;3.35;;
60653;SDS011;46476;53.614;10.048;2022-10-17T14:28:13;5.03;;;3.55;;
60653;SDS011;46476;53.614;10.048;2022-10-17T14:30:47;4.55;;;3.17;;
60653;SDS011;46476;53.614;10.048;2022-10-17T14:33:25;4.88;;;4.07;;
60653;SDS011;46476;53.614;10.048;2022-10-17T14:35:53;5.78;;;4.20;;
60653;SDS011;46476;53.614;10.048;2022-10-17T14:38:21;6.72;;;4.18;;
60653;SDS011;46476;53.614;10.048;2022-10-17T14:40:51;5.90;;;4.60;;
60653;SDS011;46476;53.614;10.048;2022-10-17T14:43:28;7.55;;;5.00;;
60653;SDS011;46476;53.614;10.048;2022-10-17T14:45:56;6.63;;;4.40;;
60653;SDS011;46476;53.614;10.048;2022-10-17T14:48:23;6.57;;;4.30;;
60653;SDS011;46476;53.614;10.048;2022-10-17T14:53:36;5.88;;;3.80;;
60653;SDS011;46476;53.614;10.048;2022-10-17T14:56:19;5.85;;;3.63;;
60653;SDS011;46476;53.614;10.048;2022-10-17T14:58:46;4.00;;;3.20;;
60653;SDS011;46476;53.614;10.048;2022-10-17T15:01:12;6.93;;;3.65;;
60653;SDS011;46476;53.614;10.048;2022-10-17T15:03:37;4.40;;;3.55;;
60653;SDS011;46476;53.614;10.048;2022-10-17T15:09:04;4.90;;;3.70;;
60653;SDS011;46476;53.614;10.048;2022-10-17T15:11:30;5.72;;;3.65;;
60653;SDS011;46476;53.614;10.048;2022-10-17T15:13:55;5.78;;;3.88;;
60653;SDS011;46476;53.614;10.048;2022-10-17T15:16:24;3.95;;;3.47;;
60653;SDS011;46476;53.614;10.048;2022-10-17T15:18:54;4.95;;;3.83;;
60653;SDS011;46476;53.614;10.048;2022-10-17T15:21:20;5.32;;;3.80;;
60653;SDS011;46476;53.614;10.048;2022-10-17T15:23:47;5.15;;;3.67;;
60653;SDS011;46476;53.614;10.048;2022-10-17T15:26:14;6.38;;;4.20;;
60653;SDS011;46476;53.614;10.048;2022-10-17T15:28:39;7.47;;;4.65;;
60653;SDS011;46476;53.614;10.048;2022-10-17T15:31:05;6.78;;;4.43;;
60653;SDS011;46476;53.614;10.048;2022-10-17T15:33:30;6.10;;;4.18;;
60653;SDS011;46476;53.614;10.048;2022-10-17T15:35:55;5.10;;;3.42;;
60653;SDS011;46476;53.614;10.048;2022-10-17T15:38:21;4.95;;;3.88;;
60653;SDS011;46476;53.614;10.048;2022-10-17T15:40:47;5.43;;;4.38;;
60653;SDS011;46476;53.614;10.048;2022-10-17T15:43:16;5.30;;;4.57;;
60653;SDS011;46476;53.614;10.048;2022-10-17T15:45:43;6.38;;;4.32;;
60653;SDS011;46476;53.614;10.048;2022-10-17T15:48:43;9.07;;;4.32;;
60653;SDS011;46476;53.614;10.048;2022-10-17T15:51:47;6.03;;;4.30;;
60653;SDS011;46476;53.614;10.048;2022-10-17T15:54:17;6.38;;;4.25;;
60653;SDS011;46476;53.614;10.048;2022-10-17T15:56:51;6.15;;;4.32;;
60653;SDS011;46476;53.614;10.048;2022-10-17T15:59:21;6.32;;;4.68;;
60653;SDS011;46476;53.614;10.048;2022-10-17T16:01:59;4.85;;;4.03;;
60653;SDS011;46476;53.614;10.048;2022-10-17T16:04:26;5.93;;;4.60;;
60653;SDS011;46476;53.614;10.048;2022-10-17T16:07:00;5.50;;;4.10;;
60653;SDS011;46476;53.614;10.048;2022-10-17T16:09:40;5.70;;;4.50;;
60653;SDS011;46476;53.614;10.048;2022-10-17T16:12:27;6.47;;;4.63;;
60653;SDS011;46476;53.614;10.048;2022-10-17T16:15:13;5.55;;;3.97;;
60653;SDS011;46476;53.614;10.048;2022-10-17T16:17:41;4.72;;;4.13;;
60653;SDS011;46476;53.614;10.048;2022-10-17T16:20:08;4.57;;;4.18;;
60653;SDS011;46476;53.614;10.048;2022-10-17T16:22:41;4.50;;;3.97;;
60653;SDS011;46476;53.614;10.048;2022-10-17T16:25:19;6.97;;;4.45;;
60653;SDS011;46476;53.614;10.048;2022-10-17T16:27:50;6.93;;;4.27;;
60653;SDS011;46476;53.614;10.048;2022-10-17T16:30:23;4.25;;;3.85;;
60653;SDS011;46476;53.614;10.048;2022-10-17T16:32:50;6.20;;;4.38;;
60653;SDS011;46476;53.614;10.048;2022-10-17T16:35:26;6.47;;;4.60;;
60653;SDS011;46476;53.614;10.048;2022-10-17T16:38:00;5.03;;;3.92;;
60653;SDS011;46476;53.614;10.048;2022-10-17T16:40:33;5.55;;;3.80;;
60653;SDS011;46476;53.614;10.048;2022-10-17T16:43:00;7.43;;;4.55;;
60653;SDS011;46476;53.614;10.048;2022-10-17T16:45:37;5.55;;;4.68;;
60653;SDS011;46476;53.614;10.048;2022-10-17T16:48:04;5.97;;;4.45;;
60653;SDS011;46476;53.614;10.048;2022-10-17T16:50:30;7.65;;;4.65;;
60653;SDS011;46476;53.614;10.048;2022-10-17T16:53:08;5.85;;;4.47;;
60653;SDS011;46476;53.614;10.048;2022-10-17T16:55:34;5.20;;;4.47;;
60653;SDS011;46476;53.614;10.048;2022-10-17T16:57:59;4.68;;;4.05;;
60653;SDS011;46476;53.614;10.048;2022-10-17T17:00:25;5.80;;;4.63;;
60653;SDS011;46476;53.614;10.048;2022-10-17T17:02:52;7.07;;;4.32;;
60653;SDS011;46476;53.614;10.048;2022-10-17T17:05:17;5.55;;;4.78;;
60653;SDS011;46476;53.614;10.048;2022-10-17T17:07:42;5.53;;;4.70;;
60653;SDS011;46476;53.614;10.048;2022-10-17T17:10:09;7.15;;;4.35;;
60653;SDS011;46476;53.614;10.048;2022-10-17T17:12:34;5.50;;;4.35;;
60653;SDS011;46476;53.614;10.048;2022-10-17T17:15:00;8.60;;;4.55;;
60653;SDS011;46476;53.614;10.048;2022-10-17T17:17:26;5.60;;;4.40;;
60653;SDS011;46476;53.614;10.048;2022-10-17T17:19:52;8.25;;;4.45;;
60653;SDS011;46476;53.614;10.048;2022-10-17T17:22:17;5.13;;;4.43;;
60653;SDS011;46476;53.614;10.048;2022-10-17T17:24:43;5.70;;;4.85;;
60653;SDS011;46476;53.614;10.048;2022-10-17T17:27:08;5.95;;;4.88;;
60653;SDS011;46476;53.614;10.048;2022-10-17T17:29:33;9.27;;;5.07;;
60653;SDS011;46476;53.614;10.048;2022-10-17T17:31:59;5.25;;;4.57;;
60653;SDS011;46476;53.614;10.048;2022-10-17T17:34:24;6.22;;;4.72;;
60653;SDS011;46476;53.614;10.048;2022-10-17T17:36:49;7.15;;;5.07;;
60653;SDS011;46476;53.614;10.048;2022-10-17T17:39:15;6.10;;;4.95;;
60653;SDS011;46476;53.614;10.048;2022-10-17T17:41:41;6.72;;;4.93;;
60653;SDS011;46476;53.614;10.048;2022-10-17T17:44:08;7.35;;;5.05;;
60653;SDS011;46476;53.614;10.048;2022-10-17T17:46:35;5.97;;;5.32;;
60653;SDS011;46476;53.614;10.048;2022-10-17T17:49:00;8.48;;;4.88;;
60653;SDS011;46476;53.614;10.048;2022-10-17T17:51:26;6.80;;;5.35;;
60653;SDS011;46476;53.614;10.048;2022-10-17T17:53:52;5.97;;;5.30;;
60653;SDS011;46476;53.614;10.048;2022-10-17T17:56:19;6.82;;;5.85;;
60653;SDS011;46476;53.614;10.048;2022-10-17T17:58:46;6.18;;;5.13;;